Nimrod, Minnesota
Current Conditions -  °F | °C
As of 10:53 PM on Friday 21 Nov 2014 (Local Time) from KSAZ Reporting Station
Clear Clear  
Wind Chill: 21°   Ceiling: Unl
Heat Index: 28°   Visibility: 10mi
Dew Point: 25°   Wind: 7mph
Humidity: 86%   Direction: 200°SSW
Pressure: 29.74"   Gusts: NA
Location:  46.64°N, 94.88°W
Report Text: KSAZ 220453Z AUTO 20006KT 10SM CLR M02/M04 A2974 RMK AO2
Loading
Personal Weather Stations






























Interactive Weather Map New forecast layout! Learn more

10-Day Weather Forecast

Advertisements
Track Severe Weather on mobile